Latest Weather Observations for Bankstown

IDN60901

Issued at 3:31 pm EST Saturday 15 June 2024 (issued every 10 minutes, with the page automatically refreshed every 10 minutes)

About weather observations | Map of Sydney area stations | Latest observations for Sydney area | Other Formats
Station Details ID: 066137 Name: BANKSTOWN AIRPORT AWS Lat: -33.92 Lon: 150.98 Height: 7.2 m
Data from the previous 72 hours. | See also: Recent months at Bankstown
Date/Time
EST
Temp
°C
App
Temp
°C
Dew
Point
°C
Rel
Hum
%
Delta-T
°C
Wind Press
QNH
hPa
Press
MSL
hPa
Rain since
9am
mm
Dir  Spd
km/h
Gust
km/h
Spd
kts
Gust
kts
15/03:00pm 13.7 9.5 8.3 70 2.7 S 20 30 11 16 1015.9 1015.9 0.2
15/02:30pm 14.6 11.5 8.8 68 2.9 S 15 20 8 11 1015.9 1015.9 0.2
15/02:00pm 14.8 11.4 9.2 69 2.9 SSW 17 28 9 15 1015.7 1015.7 0.2
15/01:30pm 15.2 12.8 10.0 71 2.7 S 13 19 7 10 1015.7 1015.7 0.2
15/01:00pm 14.7 12.7 10.1 74 2.4 SSW 11 17 6 9 1016.1 1016.1 0.2
15/12:30pm 14.0 12.1 10.4 79 1.9 SW 11 13 6 7 1016.6 1016.6 0.2
15/12:00pm 13.6 11.7 10.6 82 1.6 SW 11 17 6 9 1016.9 1016.9 0.2
15/11:30am 13.5 11.6 10.5 82 1.6 SW 11 19 6 10 1017.2 1017.2 0.2
15/11:00am 13.3 11.2 11.0 86 1.2 SW 13 20 7 11 1017.7 1017.7 0.2
15/10:30am 12.7 11.0 11.1 90 0.8 SW 11 17 6 9 1017.8 1017.8 0.2
15/10:00am 12.3 10.8 10.7 90 0.8 WSW 9 15 5 8 1018.0 1018.0 0.2
15/09:30am 11.7 10.2 10.4 92 0.7 WSW 9 11 5 6 1018.0 1018.0 0.0
15/09:00am 11.4 10.5 10.8 96 0.3 WNW 6 9 3 5 1017.9 1017.9 20.6
15/08:30am 11.1 10.2 10.5 96 0.3 WNW 6 7 3 4 1017.7 1017.7 20.6
15/08:00am 11.0 10.0 10.4 96 0.3 NNW 6 7 3 4 1017.7 1017.7 20.4
15/07:30am 10.8 9.6 10.2 96 0.3 WSW 7 11 4 6 1017.6 1017.6 19.6
15/07:00am 10.8 9.2 10.2 96 0.3 SW 9 11 5 6 1017.5 1017.5 19.6
15/06:30am 10.8 8.8 10.3 97 0.3 SW 11 13 6 7 1017.3 1017.3 19.4
15/06:00am 10.8 9.2 10.3 97 0.3 WSW 9 13 5 7 1016.9 1016.9 19.0
15/05:30am 10.8 9.3 10.5 98 0.2 WSW 9 15 5 8 1017.0 1017.0 18.8
15/05:00am 10.9 9.0 10.6 98 0.2 WSW 11 15 6 8 1016.9 1016.9 18.2
15/04:30am 10.9 9.4 10.6 98 0.2 WSW 9 13 5 7 1017.0 1017.0 17.0
15/04:00am 11.0 9.5 10.7 98 0.2 WSW 9 13 5 7 1016.9 1016.9 16.4
15/03:30am 11.0 9.5 10.7 98 0.2 W 9 11 5 6 1016.9 1016.9 16.2
15/03:00am 11.1 10.0 10.8 98 0.2 WSW 7 9 4 5 1016.9 1016.9 15.8
15/02:43am 11.1 10.0 10.8 98 0.2 WSW 7 11 4 6 1016.9 1016.9 15.2
15/02:30am 11.2 10.4 10.9 98 0.2 SW 6 9 3 5 1017.0 1017.0 14.8
15/02:21am 11.2 9.8 10.9 98 0.2 W 9 13 5 7 1017.1 1017.1 14.2
15/02:00am 11.2 9.8 10.9 98 0.2 W 9 13 5 7 1017.2 1017.2 12.6
15/01:30am 11.4 10.6 11.1 98 0.2 WSW 6 9 3 5 1017.1 1017.1 12.2
15/01:00am 11.5 10.6 11.2 98 0.2 SSW 7 9 4 5 1017.2 1017.2 11.8
15/12:52am 11.5 10.2 11.2 98 0.2 SSW 9 11 5 6 1017.3 1017.3 11.8
15/12:36am 11.5 10.2 11.2 98 0.2 SSW 9 11 5 6 1017.5 1017.5 10.6
15/12:30am 11.5 10.2 11.2 98 0.2 SSW 9 11 5 6 1017.5 1017.5 10.0
15/12:00am 11.3 11.6 10.8 97 0.3 CALM 0 6 0 3 1017.6 1017.6 9.2
 
Date/Time
EST
Temp
°C
App
Temp
°C
Dew
Point
°C
Rel
Hum
%
Delta-T
°C
Wind Press
QNH
hPa
Press
MSL
hPa
Rain since
9am
mm
Dir  Spd
km/h
Gust
km/h
Spd
kts
Gust
kts
14/11:34pm 11.3 11.2 10.8 97 0.3 WSW 2 7 1 4 1017.7 1017.7 8.8
14/11:30pm 11.3 10.8 10.8 97 0.3 WSW 4 7 2 4 1017.7 1017.7 8.8
14/11:00pm 11.5 11.5 11.0 97 0.3 WSW 2 11 1 6 1018.1 1018.1 8.4
14/10:51pm 11.6 12.0 11.1 97 0.3 CALM 0 0 0 0 1018.1 1018.1 8.2
14/10:30pm 11.6 10.8 11.1 97 0.3 WNW 6 7 3 4 1018.2 1018.2 7.8
14/10:00pm 11.7 12.1 11.2 97 0.3 CALM 0 0 0 0 1018.3 1018.3 7.6
14/09:30pm 11.8 11.5 11.3 97 0.3 W 4 7 2 4 1018.5 1018.5 6.4
14/09:00pm 12.1 11.8 11.6 97 0.3 WNW 4 7 2 4 1018.7 1018.7 5.8
14/08:30pm 12.0 12.1 11.4 96 0.3 W 2 7 1 4 1018.9 1018.9 5.2
14/08:00pm 12.1 12.5 11.3 95 0.4 CALM 0 0 0 0 1019.1 1019.1 5.0
14/07:30pm 12.3 12.7 11.4 94 0.5 CALM 0 6 0 3 1019.0 1019.0 4.8
14/07:00pm 12.4 12.9 11.5 94 0.5 CALM 0 0 0 0 1019.0 1019.0 3.8
14/06:30pm 12.7 12.1 11.6 93 0.6 E 6 7 3 4 1018.7 1018.7 2.4
14/06:00pm 12.8 13.3 11.5 92 0.7 CALM 0 6 0 3 1018.4 1018.4 2.0
14/05:30pm 13.1 12.3 11.7 91 0.7 NE 7 9 4 5 1018.5 1018.5 1.2
14/05:00pm 13.6 12.6 11.1 85 1.3 WNW 7 9 4 5 1018.1 1018.1 0.0
14/04:30pm 13.8 13.0 11.1 84 1.4 WNW 6 9 3 5 1017.9 1017.9 0.0
14/04:00pm 13.9 12.1 10.9 82 1.6 ENE 11 15 6 8 1017.6 1017.6 0.0
14/03:30pm 14.3 12.5 10.9 80 1.8 ENE 11 15 6 8 1017.6 1017.6 0.0
14/03:00pm 15.5 13.5 10.3 71 2.7 SSE 11 20 6 11 1017.8 1017.8 0.0
14/02:30pm 15.5 14.2 9.2 66 3.2 NE 6 9 3 5 1017.7 1017.7 0.0
14/02:00pm 15.4 13.8 8.2 62 3.6 WNW 6 9 3 5 1017.8 1017.8 0.0
14/01:30pm 15.3 13.6 8.5 64 3.4 WNW 7 11 4 6 1018.1 1018.1 0.0
14/01:00pm 15.3 13.7 8.8 65 3.3 WNW 7 11 4 6 1018.3 1018.3 0.0
14/12:30pm 14.8 13.0 8.1 64 3.4 WNW 7 9 4 5 1018.5 1018.5 0.0
14/12:00pm 14.7 14.1 7.5 62 3.5 CALM 0 0 0 0 1018.9 1018.9 0.0
14/11:30am 14.7 12.9 8.0 64 3.3 WSW 7 11 4 6 1019.3 1019.3 0.0
14/11:00am 14.1 12.2 7.6 65 3.2 WSW 7 11 4 6 1019.9 1019.9 0.0
14/10:30am 13.5 11.1 7.1 65 3.1 WSW 9 11 5 6 1020.2 1020.2 0.0
14/10:00am 12.7 9.8 6.5 66 2.9 WSW 11 13 6 7 1020.4 1020.4 0.0
14/09:30am 12.1 9.7 7.0 71 2.4 WSW 9 13 5 7 1020.4 1020.4 0.0
14/09:00am 11.5 9.3 6.4 71 2.4 W 7 9 4 5 1020.2 1020.2 0.0
14/08:30am 10.5 8.5 6.3 75 2.0 NW 6 11 3 6 1020.1 1020.1 0.0
14/08:00am 9.7 8.9 6.4 80 1.5 CALM 0 0 0 0 1019.9 1019.9 0.0
14/07:30am 8.9 7.3 6.5 85 1.1 WNW 4 9 2 5 1020.2 1020.2 0.0
14/07:00am 8.2 7.2 5.8 85 1.1 CALM 0 0 0 0 1019.9 1019.9 0.0
14/06:30am 9.0 6.7 5.9 81 1.4 WNW 7 7 4 4 1019.8 1019.8 0.0
14/06:00am 9.1 7.0 5.8 80 1.5 NW 6 7 3 4 1019.6 1019.6 0.0
14/05:30am 8.8 7.8 5.4 79 1.5 CALM 0 0 0 0 1019.4 1019.4 0.0
14/05:00am 9.1 8.1 5.5 78 1.6 CALM 0 0 0 0 1019.6 1019.6 0.0
14/04:30am 9.0 6.3 5.6 79 1.5 WNW 9 11 5 6 1019.8 1019.8 0.0
14/04:00am 8.9 6.7 5.5 79 1.5 WSW 6 11 3 6 1019.9 1019.9 0.0
14/03:30am 8.9 8.0 6.2 83 1.2 CALM 0 0 0 0 1020.0 1020.0 0.0
14/03:00am 9.1 6.9 6.2 82 1.3 NNW 7 9 4 5 1020.0 1020.0 0.0
14/02:30am 9.0 7.0 6.3 83 1.2 NW 6 9 3 5 1020.1 1020.1 0.0
14/02:26am 9.0 7.0 6.4 84 1.2 NW 6 9 3 5 1020.1 1020.1 0.0
14/02:14am 8.8 6.6 6.4 85 1.1 NW 7 7 4 4 1020.2 1020.2 0.0
14/02:00am 8.7 6.5 6.0 83 1.2 NW 7 9 4 5 1020.2 1020.2 0.0
14/01:30am 8.4 6.2 5.3 81 1.4 NW 6 7 3 4 1020.0 1020.0 0.0
14/01:00am 9.0 6.9 5.6 79 1.5 WNW 6 9 3 5 1020.3 1020.3 0.0
14/12:30am 9.4 8.0 5.4 76 1.8 W 2 7 1 4 1020.5 1020.5 0.0
14/12:00am 10.0 7.8 5.4 73 2.1 WSW 6 7 3 4 1020.5 1020.5 0.0
 
Date/Time
EST
Temp
°C
App
Temp
°C
Dew
Point
°C
Rel
Hum
%
Delta-T
°C
Wind Press
QNH
hPa
Press
MSL
hPa
Rain since
9am
mm
Dir  Spd
km/h
Gust
km/h
Spd
kts
Gust
kts
13/11:30pm 10.3 7.6 5.7 73 2.1 WSW 9 13 5 7 1020.9 1020.9 0.0
13/11:00pm 10.3 9.1 6.3 76 1.9 W 2 9 1 5 1021.0 1021.0 0.0
13/10:30pm 9.9 9.1 6.4 79 1.6 CALM 0 4 0 2 1021.3 1021.3 0.0
13/10:00pm 10.1 9.2 5.9 75 1.9 CALM 0 0 0 0 1021.2 1021.2 0.0
13/09:30pm 10.2 8.1 6.0 75 1.9 W 6 9 3 5 1021.1 1021.1 0.0
13/09:00pm 9.9 8.2 6.1 77 1.7 W 4 9 2 5 1021.3 1021.3 0.0
13/08:30pm 10.1 8.8 6.1 76 1.9 WSW 2 7 1 4 1021.3 1021.3 0.0
13/08:00pm 10.1 8.9 6.3 77 1.8 WSW 2 7 1 4 1021.2 1021.2 0.0
13/07:30pm 10.2 9.2 5.4 72 2.2 CALM 0 4 0 2 1021.0 1021.0 0.0
13/07:00pm 11.3 9.1 5.4 67 2.7 W 6 7 3 4 1020.9 1020.9 0.0
13/06:30pm 11.9 9.5 5.3 64 3.0 W 7 9 4 5 1020.7 1020.7 0.0
13/06:00pm 12.7 10.3 5.4 61 3.4 SW 7 9 4 5 1020.6 1020.6 0.0
13/05:30pm 12.9 10.2 5.6 61 3.4 W 9 11 5 6 1020.4 1020.4 0.0
13/05:00pm 13.4 11.0 5.3 58 3.8 W 7 9 4 5 1020.3 1020.3 0.0
13/04:30pm 14.3 11.6 5.4 55 4.2 WSW 9 13 5 7 1020.5 1020.5 0.0
13/04:00pm 14.6 11.5 5.4 54 4.3 WSW 11 15 6 8 1020.0 1020.0 0.0
13/03:30pm 14.9 11.8 5.4 53 4.5 WSW 11 17 6 9 1019.6 1019.6 0.0
13/03:00pm 15.1 11.6 5.6 53 4.5 SW 13 17 7 9 1019.8 1019.8 0.0
13/02:30pm 15.4 12.0 5.9 53 4.6 SW 13 19 7 10 1019.4 1019.4 0.0
13/02:00pm 15.4 11.5 5.3 51 4.8 WSW 15 26 8 14 1019.2 1019.2 0.0
13/01:30pm 15.2 11.6 5.1 51 4.8 WSW 13 19 7 10 1019.5 1019.5 0.0
13/01:00pm 15.2 11.6 5.1 51 4.7 WSW 13 20 7 11 1019.4 1019.4 0.0
13/12:30pm 15.1 11.1 4.8 50 4.8 WSW 15 22 8 12 1019.5 1019.5 0.0
13/12:00pm 14.8 10.7 4.2 49 4.9 WSW 15 22 8 12 1020.1 1020.1 0.0
13/11:30am 14.4 10.3 4.4 51 4.6 SW 15 24 8 13 1019.9 1019.9 0.0
13/11:00am 13.4 8.8 3.8 52 4.3 WSW 17 24 9 13 1020.7 1020.7 0.0
13/10:30am 14.1 10.1 4.9 54 4.3 WSW 15 22 8 12 1021.0 1021.0 0.0
13/10:00am 12.4 8.2 3.6 55 3.9 SW 15 28 8 15 1021.4 1021.4 0.0
13/09:30am 11.5 7.2 3.3 57 3.6 WSW 15 26 8 14 1021.0 1021.0 0.0
13/09:00am 10.5 6.5 2.6 58 3.4 WSW 13 19 7 10 1020.7 1020.7 0.2
13/08:30am 9.7 5.6 2.1 59 3.2 W 13 19 7 10 1020.7 1020.7 0.2
13/08:00am 8.5 5.1 2.1 64 2.6 W 9 13 5 7 1020.5 1020.5 0.2
13/07:30am 7.5 5.0 1.6 66 2.4 SW 4 11 2 6 1020.9 1020.9 0.2
13/07:00am 7.5 4.1 1.6 66 2.4 WSW 9 17 5 9 1021.1 1021.1 0.2
13/06:30am 7.7 4.6 1.5 65 2.5 WSW 7 11 4 6 1020.5 1020.5 0.2
13/06:00am 8.1 5.0 1.3 62 2.8 WSW 7 11 4 6 1020.3 1020.3 0.2
13/05:30am 9.0 5.5 1.2 58 3.2 WSW 9 15 5 8 1019.3 1019.3 0.2
13/05:00am 9.6 5.7 1.3 56 3.4 WSW 11 19 6 10 1019.0 1019.0 0.2
13/04:30am 9.5 5.6 1.4 57 3.3 WSW 11 15 6 8 1018.9 1018.9 0.2
13/04:00am 8.7 5.2 1.4 60 3.0 WSW 9 15 5 8 1018.9 1018.9 0.2
13/03:30am 8.3 5.2 1.2 61 2.9 SW 7 9 4 5 1019.0 1019.0 0.2
13/03:00am 7.8 5.9 0.8 61 2.8 CALM 0 0 0 0 1018.7 1018.7 0.2
13/02:30am 7.7 4.1 0.4 60 2.9 WSW 9 13 5 7 1019.2 1019.2 0.2
13/02:00am 8.0 4.0 0.7 60 2.9 WSW 11 15 6 8 1019.0 1019.0 0.2
13/01:30am 7.0 3.7 0.2 62 2.7 WSW 7 11 4 6 1019.2 1019.2 0.2
13/01:00am 7.0 3.8 0.5 63 2.5 SW 7 11 4 6 1019.1 1019.1 0.2
13/12:30am 7.6 3.9 0.1 59 2.9 WSW 9 13 5 7 1019.1 1019.1 0.2
13/12:00am 7.9 3.9 0.4 59 3.0 WSW 11 17 6 9 1018.9 1018.9 0.2
 
Date/Time
EST
Temp
°C
App
Temp
°C
Dew
Point
°C
Rel
Hum
%
Delta-T
°C
Wind Press
QNH
hPa
Press
MSL
hPa
Rain since
9am
mm
Dir  Spd
km/h
Gust
km/h
Spd
kts
Gust
kts
12/11:30pm 7.3 3.4 1.2 65 2.5 SW 11 15 6 8 1019.0 1019.0 0.2
12/11:00pm 7.6 4.2 1.7 66 2.4 WSW 9 11 5 6 1019.1 1019.1 0.2
12/10:30pm 7.8 5.1 2.7 70 2.1 SW 6 9 3 5 1018.9 1018.9 0.2
12/10:00pm 8.3 5.0 2.5 67 2.4 WSW 9 11 5 6 1018.7 1018.7 0.2
12/09:30pm 8.7 5.3 2.1 63 2.7 WSW 9 11 5 6 1018.5 1018.5 0.2
12/09:00pm 9.3 6.3 1.7 59 3.1 SW 7 11 4 6 1018.0 1018.0 0.2
12/08:30pm 9.6 6.2 2.0 59 3.2 W 9 13 5 7 1017.6 1017.6 0.2
12/08:00pm 10.0 7.2 1.9 57 3.4 WSW 6 7 3 4 1017.0 1017.0 0.2
12/07:30pm 10.9 6.7 1.7 53 3.9 SSW 13 17 7 9 1016.5 1016.5 0.2
12/07:00pm 10.7 7.8 4.6 66 2.7 SSW 9 11 5 6 1015.9 1015.9 0.2
12/06:30pm 10.7 8.7 6.1 73 2.1 SSW 6 7 3 4 1015.4 1015.4 0.2
12/06:00pm 11.8 9.5 5.9 67 2.8 S 7 9 4 5 1014.9 1014.9 0.2
12/05:30pm 12.8 10.2 5.9 63 3.2 SW 9 13 5 7 1014.2 1014.2 0.2
12/05:00pm 13.5 10.5 6.1 61 3.5 SW 11 19 6 10 1013.6 1013.6 0.2
12/04:30pm 14.1 11.6 6.5 60 3.7 SW 9 13 5 7 1013.2 1013.2 0.2
12/04:00pm 14.3 11.0 6.6 60 3.7 SW 13 24 7 13 1012.4 1012.4 0.2

Latest Capital City Observations: Canberra | Sydney | Melbourne | Brisbane | Adelaide | Perth | Hobart | Darwin

Other formats

Comma delimited format used in spreadsheet applications
http://www.bom.gov.au/fwo/IDN60901/IDN60901.94765.axf

JavaScript Object Notation format (JSON) in row-major order
http://www.bom.gov.au/fwo/IDN60901/IDN60901.94765.json

Data quality

Most of these data are generated automatically and are frequently updated. Quality checks on data are not normally performed. It is possible for incorrect values to appear. Refer to information at About Latest Weather Observations and please check the disclaimer before using these data.